createdAt,value
2018-04-07T00:01:27.140Z,6.15
2018-04-07T00:03:55.717Z,5.93
2018-04-07T00:06:25.019Z,6.15
2018-04-07T00:08:53.388Z,6.55
2018-04-07T00:11:22.693Z,9.48
2018-04-07T00:13:51.383Z,6.93
2018-04-07T00:16:19.968Z,10.45
2018-04-07T00:18:48.444Z,6.18
2018-04-07T00:21:17.846Z,5.62
2018-04-07T00:23:47.075Z,5.07
2018-04-07T00:26:15.520Z,5.22
2018-04-07T00:28:44.108Z,5.87
2018-04-07T00:31:13.254Z,5.60
2018-04-07T00:33:41.646Z,6.53
2018-04-07T00:36:10.266Z,4.80
2018-04-07T00:38:39.568Z,6.85
2018-04-07T00:41:08.147Z,7.28
2018-04-07T00:43:37.446Z,11.02
2018-04-07T00:46:06.136Z,5.10
2018-04-07T00:48:35.452Z,4.93
2018-04-07T00:51:04.015Z,5.60
2018-04-07T00:53:33.336Z,6.07
2018-04-07T00:56:01.819Z,4.40
2018-04-07T00:58:30.383Z,4.32
2018-04-07T01:00:59.563Z,5.40
2018-04-07T01:03:28.164Z,8.90
2018-04-07T01:05:57.392Z,4.15
2018-04-07T01:08:25.859Z,5.22
2018-04-07T01:10:54.266Z,6.03
2018-04-07T01:13:22.724Z,7.50
2018-04-07T01:15:51.201Z,5.60
2018-04-07T01:18:19.606Z,8.15
2018-04-07T01:20:48.138Z,5.78
2018-04-07T01:23:16.726Z,6.53
2018-04-07T01:25:45.124Z,7.87
2018-04-07T01:28:13.577Z,6.37
2018-04-07T01:30:42.885Z,6.47
2018-04-07T01:33:11.468Z,8.57
2018-04-07T01:35:39.866Z,6.30
2018-04-07T01:38:08.397Z,7.18
2018-04-07T01:40:37.013Z,5.32
2018-04-07T01:43:05.413Z,8.90
2018-04-07T01:45:33.969Z,5.80
2018-04-07T01:48:02.557Z,11.45
2018-04-07T01:50:31.769Z,6.82
2018-04-07T01:53:00.337Z,9.35
2018-04-07T01:55:29.495Z,7.87
2018-04-07T01:57:58.109Z,8.05
2018-04-07T02:00:27.416Z,9.45
2018-04-07T02:02:56.001Z,7.18
2018-04-07T02:05:25.300Z,5.85
2018-04-07T02:07:53.879Z,11.77
2018-04-07T02:10:23.035Z,7.40
2018-04-07T02:12:52.288Z,5.43
2018-04-07T02:15:20.687Z,7.57
2018-04-07T02:17:49.052Z,5.75
2018-04-07T02:20:17.524Z,6.05
2018-04-07T02:22:46.673Z,6.22
2018-04-07T02:25:15.190Z,6.97
2018-04-07T02:27:43.880Z,7.65
2018-04-07T02:30:13.068Z,7.53
2018-04-07T02:32:41.560Z,8.63
2018-04-07T02:35:11.264Z,6.25
2018-04-07T02:37:39.847Z,6.53
2018-04-07T02:40:09.016Z,5.43
2018-04-07T02:42:37.499Z,7.10
2018-04-07T02:45:05.844Z,9.32
2018-04-07T02:47:34.789Z,8.88
2018-04-07T02:50:03.489Z,8.27
2018-04-07T02:52:31.865Z,7.20
2018-04-07T02:55:00.445Z,6.65
2018-04-07T02:57:29.558Z,7.53
2018-04-07T02:59:58.117Z,6.18
2018-04-07T03:02:27.316Z,8.85
2018-04-07T03:04:55.754Z,10.25
2018-04-07T03:07:24.194Z,8.25
2018-04-07T03:09:52.761Z,7.28
2018-04-07T03:12:21.921Z,6.80
2018-04-07T03:14:50.438Z,6.00
2018-04-07T03:17:18.798Z,6.25
2018-04-07T03:19:48.111Z,9.13
2018-04-07T03:22:17.330Z,7.72
2018-04-07T03:24:45.711Z,6.75
2018-04-07T03:27:14.274Z,7.85
2018-04-07T03:29:43.679Z,10.38
2018-04-07T03:32:12.975Z,8.80
2018-04-07T03:34:42.135Z,8.07
2018-04-07T03:37:10.544Z,7.22
2018-04-07T03:39:38.958Z,6.20
2018-04-07T03:42:07.615Z,7.03
2018-04-07T03:44:36.829Z,9.02
2018-04-07T03:47:05.218Z,9.15
2018-04-07T03:49:33.585Z,7.65
2018-04-07T03:52:02.050Z,7.87
2018-04-07T03:54:31.265Z,7.75
2018-04-07T03:56:59.635Z,9.65
2018-04-07T03:59:28.212Z,7.70
2018-04-07T04:01:56.630Z,8.55
2018-04-07T04:04:25.084Z,6.75
2018-04-07T04:06:53.653Z,6.65
2018-04-07T04:09:22.851Z,9.52
2018-04-07T04:11:51.345Z,7.45
2018-04-07T04:14:19.915Z,10.60
2018-04-07T04:16:48.379Z,9.60
2018-04-07T04:19:16.892Z,8.48
2018-04-07T04:21:45.315Z,10.63
2018-04-07T04:24:13.837Z,6.70
2018-04-07T04:26:42.198Z,8.73
2018-04-07T04:29:10.799Z,7.90
2018-04-07T04:31:39.992Z,8.20
2018-04-07T04:34:08.491Z,8.15
2018-04-07T04:36:36.982Z,7.03
2018-04-07T04:39:06.469Z,5.22
2018-04-07T04:41:35.623Z,8.80
2018-04-07T04:44:04.144Z,9.05
2018-04-07T04:46:32.607Z,7.00
2018-04-07T04:49:00.989Z,7.93
2018-04-07T04:51:30.126Z,8.23
2018-04-07T04:53:58.674Z,7.03
2018-04-07T04:56:27.982Z,12.18
2018-04-07T04:58:57.277Z,7.15
2018-04-07T05:01:26.492Z,7.75
2018-04-07T05:03:54.903Z,9.20
2018-04-07T05:06:23.319Z,9.45
2018-04-07T05:08:51.720Z,8.50
2018-04-07T05:11:21.422Z,5.07
2018-04-07T05:13:50.749Z,6.72
2018-04-07T05:16:19.148Z,8.80
2018-04-07T05:18:47.683Z,8.60
2018-04-07T05:21:16.068Z,7.15
2018-04-07T05:23:45.361Z,8.65
2018-04-07T05:26:14.659Z,7.10
2018-04-07T05:28:43.866Z,6.78
2018-04-07T05:31:13.102Z,10.40
2018-04-07T05:33:41.639Z,6.30
2018-04-07T05:36:10.828Z,9.40
2018-04-07T05:38:39.251Z,11.35
2018-04-07T05:41:07.635Z,7.43
2018-04-07T05:43:35.990Z,8.88
2018-04-07T05:46:04.410Z,6.35
2018-04-07T05:48:33.752Z,7.30
2018-04-07T05:51:03.052Z,7.22
2018-04-07T05:53:31.635Z,8.13
2018-04-07T05:56:00.060Z,7.65
2018-04-07T05:58:28.487Z,9.80
2018-04-07T06:00:57.628Z,5.25
2018-04-07T06:03:25.987Z,6.75
2018-04-07T06:05:54.549Z,7.50
2018-04-07T06:08:23.137Z,6.65
2018-04-07T06:10:51.526Z,8.63
2018-04-07T06:13:19.919Z,8.95
2018-04-07T06:15:48.361Z,8.20
2018-04-07T06:18:17.552Z,6.18
2018-04-07T06:20:46.971Z,9.45
2018-04-07T06:23:15.376Z,7.80
2018-04-07T06:25:43.927Z,11.00
2018-04-07T06:28:12.318Z,6.47
2018-04-07T06:30:40.889Z,6.80
2018-04-07T06:33:10.026Z,7.13
2018-04-07T06:35:38.517Z,6.40
2018-04-07T06:38:07.274Z,6.83
2018-04-07T06:40:35.705Z,7.60
2018-04-07T06:43:04.081Z,8.40
2018-04-07T06:45:32.526Z,9.50
2018-04-07T06:48:00.994Z,8.30
2018-04-07T06:50:29.870Z,9.37
2018-04-07T06:52:59.102Z,8.17
2018-04-07T06:55:27.480Z,8.83
2018-04-07T06:57:55.880Z,8.40
2018-04-07T07:00:24.322Z,8.53
2018-04-07T07:02:52.883Z,6.37
2018-04-07T07:05:22.069Z,7.10
2018-04-07T07:07:50.575Z,9.00
2018-04-07T07:10:19.140Z,6.90
2018-04-07T07:12:47.524Z,7.90
2018-04-07T07:15:16.919Z,10.83
2018-04-07T07:17:45.308Z,6.13
2018-04-07T07:20:13.882Z,6.00
2018-04-07T07:22:43.306Z,5.50
2018-04-07T07:25:11.872Z,7.97
2018-04-07T07:27:41.171Z,6.87
2018-04-07T07:30:10.329Z,6.00
2018-04-07T07:32:38.739Z,5.40
2018-04-07T07:35:08.044Z,6.30
2018-04-07T07:37:37.249Z,7.13
2018-04-07T07:40:06.546Z,6.30
2018-04-07T07:42:35.128Z,7.70
2018-04-07T07:45:09.220Z,8.17
2018-04-07T07:47:37.618Z,6.50
2018-04-07T07:50:06.778Z,10.83
2018-04-07T07:52:35.239Z,8.67
2018-04-07T07:55:03.773Z,7.03
2018-04-07T07:57:32.178Z,8.43
2018-04-07T08:00:01.005Z,8.93
2018-04-07T08:02:29.390Z,6.80
2018-04-07T08:04:57.784Z,7.23
2018-04-07T08:07:26.204Z,5.97
2018-04-07T08:09:54.567Z,6.03
2018-04-07T08:12:26.630Z,6.90
2018-04-07T08:14:55.203Z,6.30
2018-04-07T08:17:24.503Z,6.23
2018-04-07T08:19:53.695Z,7.23
2018-04-07T08:22:22.107Z,8.17
2018-04-07T08:24:50.562Z,8.40
2018-04-07T08:27:19.715Z,7.23
2018-04-07T08:29:48.116Z,6.63
2018-04-07T08:32:16.931Z,7.13
2018-04-07T08:34:45.404Z,7.67
2018-04-07T08:37:14.897Z,7.27
2018-04-07T08:39:42.962Z,9.03
2018-04-07T08:42:11.347Z,9.33
2018-04-07T08:44:40.570Z,7.67
2018-04-07T08:47:08.986Z,7.87
2018-04-07T08:49:37.397Z,7.27
2018-04-07T08:52:05.830Z,8.33
2018-04-07T08:54:34.659Z,8.53
2018-04-07T08:57:03.033Z,8.43
2018-04-07T08:59:31.460Z,9.10
2018-04-07T09:01:59.965Z,8.43
2018-04-07T09:04:28.406Z,6.97
2018-04-07T09:06:57.600Z,7.77
2018-04-07T09:09:26.818Z,6.97
2018-04-07T09:11:55.178Z,7.27
2018-04-07T09:14:24.370Z,6.00
2018-04-07T09:16:53.544Z,8.73
2018-04-07T09:19:21.988Z,6.83
2018-04-07T09:21:50.404Z,6.90
2018-04-07T09:24:18.831Z,6.83
2018-04-07T09:26:47.213Z,9.80
2018-04-07T09:29:15.677Z,8.63
2018-04-07T09:31:44.072Z,7.17
2018-04-07T09:34:12.519Z,7.77
2018-04-07T09:36:41.680Z,7.23
2018-04-07T09:39:10.231Z,6.60
2018-04-07T09:41:38.643Z,8.27
2018-04-07T09:44:07.123Z,6.70
2018-04-07T09:46:35.553Z,6.93
2018-04-07T09:49:04.754Z,11.17
2018-04-07T09:51:33.231Z,8.23
2018-04-07T09:54:01.609Z,7.23
2018-04-07T09:56:30.038Z,6.57
2018-04-07T09:58:58.464Z,6.70
2018-04-07T10:01:29.410Z,7.37
2018-04-07T10:03:57.848Z,7.30
2018-04-07T10:06:26.255Z,8.70
2018-04-07T10:08:55.827Z,8.70
2018-04-07T10:11:24.254Z,9.90
2018-04-07T10:13:52.669Z,7.97
2018-04-07T10:16:21.096Z,7.97
2018-04-07T10:18:50.263Z,8.77
2018-04-07T10:21:18.730Z,10.13
2018-04-07T10:23:47.107Z,8.70
2018-04-07T10:26:15.550Z,9.77
2018-04-07T10:28:44.010Z,9.03
2018-04-07T10:31:13.134Z,9.83
2018-04-07T10:33:41.581Z,10.40
2018-04-07T10:36:10.365Z,8.17
2018-04-07T10:38:38.762Z,9.27
2018-04-07T10:41:07.925Z,10.00
2018-04-07T10:43:36.331Z,8.23
2018-04-07T10:46:05.509Z,6.80
2018-04-07T10:48:33.949Z,7.70
2018-04-07T10:51:02.324Z,7.93
2018-04-07T10:53:30.742Z,9.57
2018-04-07T10:55:59.166Z,8.30
2018-04-07T10:58:27.533Z,8.63
2018-04-07T11:00:55.934Z,10.57
2018-04-07T11:03:24.374Z,8.07
2018-04-07T11:05:52.818Z,9.77
2018-04-07T11:08:21.200Z,10.57
2018-04-07T11:10:49.595Z,9.93
2018-04-07T11:13:18.187Z,8.60
2018-04-07T11:15:46.576Z,9.17
2018-04-07T11:18:15.744Z,9.17
2018-04-07T11:20:44.206Z,9.10
2018-04-07T11:23:12.629Z,10.00
2018-04-07T11:25:41.038Z,6.93
2018-04-07T11:28:09.407Z,9.93
2018-04-07T11:30:38.596Z,8.97
2018-04-07T11:33:07.750Z,10.57
2018-04-07T11:35:37.097Z,9.67
2018-04-07T11:38:06.278Z,8.67
2018-04-07T11:40:34.663Z,8.57
2018-04-07T11:43:03.926Z,9.80
2018-04-07T11:45:32.319Z,8.40
2018-04-07T11:48:00.791Z,8.43
2018-04-07T11:50:29.216Z,8.67
2018-04-07T11:52:57.643Z,8.63
2018-04-07T11:55:26.854Z,8.10
2018-04-07T11:57:55.284Z,6.57
2018-04-07T12:00:23.659Z,8.43
2018-04-07T12:02:52.032Z,7.27
2018-04-07T12:05:20.864Z,7.90
2018-04-07T12:07:49.288Z,8.83
2018-04-07T12:10:18.493Z,7.97
2018-04-07T12:12:46.952Z,7.43
2018-04-07T12:15:16.090Z,7.73
2018-04-07T12:17:44.496Z,9.13
2018-04-07T12:20:13.650Z,7.67
2018-04-07T12:22:42.075Z,7.63
2018-04-07T12:25:10.466Z,7.97
2018-04-07T12:27:39.020Z,8.97
2018-04-07T12:30:07.490Z,7.47
2018-04-07T12:32:35.914Z,9.53
2018-04-07T12:35:04.286Z,8.40
2018-04-07T12:37:32.706Z,9.07
2018-04-07T12:40:01.081Z,10.10
2018-04-07T12:42:29.524Z,10.60
2018-04-07T12:44:57.879Z,8.63
2018-04-07T12:47:26.708Z,8.90
2018-04-07T12:49:55.894Z,8.43
2018-04-07T12:52:24.270Z,7.43
2018-04-07T12:54:53.500Z,9.67
2018-04-07T12:57:22.662Z,8.43
2018-04-07T12:59:51.064Z,8.27
2018-04-07T13:02:19.473Z,7.33
2018-04-07T13:04:47.899Z,8.27
2018-04-07T13:07:16.303Z,6.77
2018-04-07T13:09:45.476Z,9.20
2018-04-07T13:12:13.908Z,8.13
2018-04-07T13:14:42.290Z,9.23
2018-04-07T13:17:10.703Z,7.70
2018-04-07T13:19:39.104Z,9.47
2018-04-07T13:22:07.558Z,9.30
2018-04-07T13:24:36.042Z,7.13
2018-04-07T13:27:04.480Z,6.73
2018-04-07T13:29:32.903Z,7.30
2018-04-07T13:32:01.299Z,8.40
2018-04-07T13:34:29.683Z,7.70
2018-04-07T13:36:58.109Z,7.80
2018-04-07T13:39:26.469Z,8.60
2018-04-07T13:41:54.872Z,7.87
2018-04-07T13:44:28.502Z,7.13
2018-04-07T13:46:56.919Z,7.40
2018-04-07T13:49:25.396Z,8.67
2018-04-07T13:51:54.583Z,8.60
2018-04-07T13:54:23.007Z,6.90
2018-04-07T13:56:51.465Z,8.37
2018-04-07T13:59:19.859Z,9.63
2018-04-07T14:01:48.261Z,7.50
2018-04-07T14:04:16.678Z,7.83
2018-04-07T14:06:45.867Z,9.57
2018-04-07T14:09:14.259Z,7.63
2018-04-07T14:11:43.823Z,8.10
2018-04-07T14:14:12.214Z,9.47
2018-04-07T14:16:40.584Z,7.20
2018-04-07T14:19:09.034Z,8.20
2018-04-07T14:21:37.450Z,12.53
2018-04-07T14:24:05.966Z,6.73
2018-04-07T14:26:35.125Z,7.57
2018-04-07T14:29:03.550Z,6.97
2018-04-07T14:31:32.783Z,6.77
2018-04-07T14:34:01.163Z,8.27
2018-04-07T14:36:29.554Z,9.37
2018-04-07T14:38:57.980Z,6.90
2018-04-07T14:41:27.171Z,6.17
2018-04-07T14:43:56.378Z,7.33
2018-04-07T14:46:25.563Z,7.23
2018-04-07T14:48:54.712Z,10.70
2018-04-07T14:51:23.174Z,9.77
2018-04-07T14:53:51.539Z,9.33
2018-04-07T14:56:19.903Z,8.20
2018-04-07T14:58:49.127Z,8.63
2018-04-07T15:01:17.485Z,9.30
2018-04-07T15:03:46.680Z,8.07
2018-04-07T15:06:15.834Z,5.80
2018-04-07T15:08:46.345Z,9.67
2018-04-07T15:11:14.849Z,6.23
2018-04-07T15:13:43.255Z,6.57
2018-04-07T15:16:11.670Z,7.60
2018-04-07T15:18:40.045Z,6.70
2018-04-07T15:21:08.495Z,6.93
2018-04-07T15:23:37.639Z,8.60
2018-04-07T15:26:06.059Z,7.60
2018-04-07T15:28:35.341Z,8.57
2018-04-07T15:31:04.574Z,8.50
2018-04-07T15:33:33.697Z,8.03
2018-04-07T15:36:02.117Z,6.53
2018-04-07T15:38:30.524Z,9.30
2018-04-07T15:40:59.656Z,7.07
2018-04-07T15:43:28.064Z,7.30
2018-04-07T15:45:56.472Z,6.50
2018-04-07T15:48:25.964Z,8.93
2018-04-07T15:50:54.330Z,6.10
2018-04-07T15:53:22.690Z,5.07
2018-04-07T15:55:51.118Z,9.30
2018-04-07T15:58:20.270Z,8.17
2018-04-07T16:00:48.730Z,9.43
2018-04-07T16:03:17.091Z,5.90
2018-04-07T16:05:45.542Z,9.03
2018-04-07T16:08:13.959Z,6.30
2018-04-07T16:10:42.403Z,6.40
2018-04-07T16:13:11.554Z,6.83
2018-04-07T16:15:40.003Z,7.37
2018-04-07T16:18:08.772Z,6.67
2018-04-07T16:20:37.917Z,8.03
2018-04-07T16:23:06.291Z,6.97
2018-04-07T16:25:34.743Z,5.27
2018-04-07T16:28:03.102Z,7.50
2018-04-07T16:30:32.670Z,6.73
2018-04-07T16:33:01.148Z,8.63
2018-04-07T16:35:29.567Z,7.27
2018-04-07T16:37:58.842Z,6.73
2018-04-07T16:40:27.208Z,6.80
2018-04-07T16:42:55.575Z,5.83
2018-04-07T16:45:24.344Z,5.83
2018-04-07T16:47:52.699Z,7.67
2018-04-07T16:50:21.888Z,7.60
2018-04-07T16:52:51.075Z,6.20
2018-04-07T16:55:19.507Z,6.40
2018-04-07T16:57:48.003Z,5.67
2018-04-07T17:00:16.361Z,5.13
2018-04-07T17:02:44.790Z,5.80
2018-04-07T17:05:13.953Z,6.23
2018-04-07T17:07:42.361Z,5.83
2018-04-07T17:10:10.789Z,6.53
2018-04-07T17:12:39.161Z,9.93
2018-04-07T17:15:07.527Z,9.27
2018-04-07T17:17:36.744Z,6.47
2018-04-07T17:20:05.148Z,8.73
2018-04-07T17:22:33.510Z,9.37
2018-04-07T17:25:01.944Z,7.47
2018-04-07T17:27:31.170Z,6.60
2018-04-07T17:29:59.548Z,6.27
2018-04-07T17:32:27.931Z,7.90
2018-04-07T17:34:56.715Z,8.23
2018-04-07T17:37:25.095Z,6.70
2018-04-07T17:39:53.487Z,8.07
2018-04-07T17:42:21.927Z,8.07
2018-04-07T17:44:51.087Z,7.30
2018-04-07T17:47:19.447Z,6.47
2018-04-07T17:49:47.881Z,8.33
2018-04-07T17:52:16.271Z,8.13
2018-04-07T17:54:45.436Z,9.47
2018-04-07T17:57:13.798Z,10.53
2018-04-07T17:59:42.250Z,13.33
2018-04-07T18:02:10.635Z,10.73
2018-04-07T18:04:39.081Z,10.30
2018-04-07T18:07:08.295Z,10.50
2018-04-07T18:09:36.711Z,7.70
2018-04-07T18:12:05.098Z,12.03
2018-04-07T18:14:33.517Z,10.33
2018-04-07T18:17:02.722Z,10.93
2018-04-07T18:19:31.144Z,8.30
2018-04-07T18:21:59.562Z,9.47
2018-04-07T18:24:27.963Z,10.07
2018-04-07T18:26:56.432Z,10.63
2018-04-07T18:29:25.011Z,6.73
2018-04-07T18:31:54.218Z,9.77
2018-04-07T18:34:22.662Z,9.30
2018-04-07T18:36:51.089Z,9.27
2018-04-07T18:39:19.507Z,8.13
2018-04-07T18:41:47.904Z,9.07
2018-04-07T18:44:16.714Z,10.97
2018-04-07T18:46:45.856Z,9.87
2018-04-07T18:49:14.232Z,11.47
2018-04-07T18:51:42.701Z,10.30
2018-04-07T18:54:11.089Z,12.33
2018-04-07T18:56:39.459Z,10.73
2018-04-07T18:59:07.979Z,12.77
2018-04-07T19:01:36.410Z,11.73
2018-04-07T19:04:04.847Z,12.80
2018-04-07T19:06:33.262Z,11.30
2018-04-07T19:09:01.697Z,12.13
2018-04-07T19:11:30.917Z,12.00
2018-04-07T19:13:59.344Z,13.33
2018-04-07T19:16:27.790Z,13.03
2018-04-07T19:18:57.033Z,13.13
2018-04-07T19:21:25.867Z,11.43
2018-04-07T19:23:54.999Z,10.33
2018-04-07T19:26:23.366Z,10.23
2018-04-07T19:28:51.794Z,12.13
2018-04-07T19:31:20.170Z,11.40
2018-04-07T19:33:48.572Z,10.67
2018-04-07T19:36:17.803Z,9.73
2018-04-07T19:38:46.196Z,11.83
2018-04-07T19:41:14.596Z,10.23
2018-04-07T19:43:43.311Z,11.30
2018-04-07T19:46:11.693Z,12.83
2018-04-07T19:48:40.933Z,12.47
2018-04-07T19:51:09.434Z,10.17
2018-04-07T19:53:37.838Z,10.90
2018-04-07T19:56:06.276Z,10.43
2018-04-07T19:58:34.684Z,10.80
2018-04-07T20:01:03.164Z,11.63
2018-04-07T20:03:32.300Z,11.67
2018-04-07T20:06:01.448Z,10.77
2018-04-07T20:08:29.983Z,12.53
2018-04-07T20:10:58.406Z,11.77
2018-04-07T20:13:26.852Z,15.27
2018-04-07T20:15:55.222Z,10.93
2018-04-07T20:18:23.639Z,13.20
2018-04-07T20:20:52.093Z,11.40
2018-04-07T20:23:20.558Z,13.47
2018-04-07T20:25:49.018Z,9.83
2018-04-07T20:28:17.472Z,11.60
2018-04-07T20:30:45.915Z,9.00
2018-04-07T20:33:14.356Z,10.67
2018-04-07T20:35:42.814Z,11.60
2018-04-07T20:38:12.751Z,10.93
2018-04-07T20:40:41.980Z,12.13
2018-04-07T20:43:14.067Z,14.10
2018-04-07T20:45:42.499Z,11.77
2018-04-07T20:48:10.959Z,14.73
2018-04-07T20:50:39.362Z,10.40
2018-04-07T20:53:08.534Z,10.20
2018-04-07T20:55:37.234Z,9.80
2018-04-07T20:58:05.643Z,11.73
2018-04-07T21:00:34.087Z,10.57
2018-04-07T21:03:02.539Z,10.70
2018-04-07T21:05:30.984Z,11.03
2018-04-07T21:07:59.501Z,10.77
2018-04-07T21:10:27.912Z,11.87
2018-04-07T21:12:56.307Z,11.60
2018-04-07T21:15:25.527Z,10.60
2018-04-07T21:17:53.960Z,12.23
2018-04-07T21:20:22.344Z,13.17
2018-04-07T21:22:51.521Z,11.93
2018-04-07T21:25:19.924Z,13.97
2018-04-07T21:27:48.729Z,11.50
2018-04-07T21:30:17.891Z,11.50
2018-04-07T21:32:46.304Z,12.90
2018-04-07T21:35:15.522Z,12.83
2018-04-07T21:37:43.999Z,11.73
2018-04-07T21:40:12.391Z,12.73
2018-04-07T21:42:40.799Z,12.90
2018-04-07T21:45:09.166Z,15.00
2018-04-07T21:47:37.595Z,14.73
2018-04-07T21:50:06.901Z,12.63
2018-04-07T21:52:36.111Z,12.97
2018-04-07T21:55:04.577Z,11.93
2018-04-07T21:57:33.866Z,14.03
2018-04-07T22:00:03.022Z,12.77
2018-04-07T22:02:32.241Z,12.70
2018-04-07T22:05:00.685Z,12.83
2018-04-07T22:07:29.084Z,10.87
2018-04-07T22:09:57.554Z,12.50
2018-04-07T22:12:26.012Z,14.60
2018-04-07T22:14:54.496Z,14.40
2018-04-07T22:17:22.938Z,13.67
2018-04-07T22:19:51.348Z,11.37
2018-04-07T22:22:19.883Z,11.17
2018-04-07T22:24:48.296Z,13.30
2018-04-07T22:27:17.596Z,15.93
2018-04-07T22:29:46.747Z,12.90
2018-04-07T22:32:15.374Z,14.93
2018-04-07T22:34:44.781Z,14.43
2018-04-07T22:37:13.914Z,13.43
2018-04-07T22:39:42.315Z,12.77
2018-04-07T22:42:10.743Z,11.30
2018-04-07T22:44:39.156Z,10.93
2018-04-07T22:47:07.694Z,13.17
2018-04-07T22:49:37.010Z,15.63
2018-04-07T22:52:05.403Z,13.60
2018-04-07T22:54:33.786Z,14.03
2018-04-07T22:57:02.173Z,14.03
2018-04-07T22:59:30.615Z,15.10
2018-04-07T23:01:58.991Z,11.77
2018-04-07T23:04:28.118Z,12.77
2018-04-07T23:06:56.582Z,13.77
2018-04-07T23:09:24.966Z,14.73
2018-04-07T23:11:53.635Z,13.07
2018-04-07T23:14:22.035Z,12.57
2018-04-07T23:16:50.507Z,13.17
2018-04-07T23:19:19.068Z,16.33
2018-04-07T23:21:48.289Z,13.57
2018-04-07T23:24:16.849Z,12.53
2018-04-07T23:26:46.000Z,16.93
2018-04-07T23:29:14.445Z,19.33
2018-04-07T23:31:43.011Z,13.43
2018-04-07T23:34:11.418Z,14.17
2018-04-07T23:36:39.830Z,13.73
2018-04-07T23:39:08.347Z,15.03
2018-04-07T23:41:36.777Z,14.50
2018-04-07T23:44:05.255Z,17.03
2018-04-07T23:46:33.634Z,13.07
2018-04-07T23:49:02.272Z,15.03
2018-04-07T23:51:30.854Z,11.97
2018-04-07T23:53:59.991Z,16.33
2018-04-07T23:56:28.638Z,15.67
2018-04-07T23:58:57.218Z,14.50
